Time;durP1;ratioP1;P1;durP2;ratioP2;P2;SDS_P1;SDS_P2;PMS_P1;PMS_P2;Temp;Humidity;BMP_temperature;BMP_pressure;BME280_temperature;BME280_humidity;BME280_pressure;Samples;Min_cycle;Max_cycle;Signal;HPM_P1;HPM_P2
2023/10/16 08:03:14;;;;;;;;;;;;;;;4.82;100.00;100215.59;4962852;28;19952;-84
2023/10/16 08:05:47;;;;;;;;;;;;;;;4.71;100.00;100213.13;4964238;28;20437;-86
2023/10/16 08:08:12;;;;;;;;;;;;;;;4.77;100.00;100210.44;4962468;28;19997;-86
2023/10/16 08:10:43;;;;;;;;;;;;;;;4.67;100.00;100203.53;4963589;28;20381;-90
2023/10/16 08:13:12;;;;;;;;;;;;;;;5.57;100.00;100214.56;4963535;28;20017;-84
2023/10/16 08:15:37;;;;;;;;;;;;;;;6.18;100.00;100209.22;4962129;28;20467;-84
2023/10/16 08:18:07;;;;;;;;;;;;;;;6.59;100.00;100211.94;4946582;28;19919;-84
2023/10/16 08:20:49;;;;;;;;;;;;;;;6.86;100.00;100218.41;4962522;28;19956;-84
2023/10/16 08:23:14;;;;;;;;;;;;;;;7.02;100.00;100214.59;4963203;28;19918;-84
2023/10/16 08:25:40;;;;;;;;;;;;;;;7.19;100.00;100213.34;4963523;28;20282;-85
2023/10/16 08:28:20;;;;;;;;;;;;;;;7.32;100.00;100209.50;4963391;28;19922;-86
2023/10/16 08:33:16;;;;;;;;;;;;;;;7.58;100.00;100205.44;4964611;28;20012;-84
2023/10/16 08:35:41;;;;;;;;;;;;;;;7.71;100.00;100209.50;4967509;28;20436;-86
2023/10/16 08:38:25;;;;;;;;;;;;;;;7.82;100.00;100203.97;4966947;28;19922;-85
2023/10/16 08:40:57;;;;;;;;;;;;;;;7.89;100.00;100199.38;4982316;28;19952;-85
2023/10/16 08:43:31;;;;;;;;;;;;;;;8.01;100.00;100199.09;4967105;28;19970;-85
2023/10/16 08:46:02;;;;;;;;;;;;;;;8.09;100.00;100193.59;4965997;28;19919;-84
2023/10/16 08:48:29;;;;;;;;;;;;;;;8.14;100.00;100194.34;4967008;28;20293;-86
2023/10/16 08:50:57;;;;;;;;;;;;;;;8.18;100.00;100186.31;4967372;28;20023;-86
2023/10/16 08:53:32;;;;;;;;;;;;;;;8.24;100.00;100184.41;4966946;28;19918;-86
2023/10/16 08:56:07;;;;;;;;;;;;;;;8.30;100.00;100173.69;4967473;28;19929;-85
2023/10/16 08:58:34;;;;;;;;;;;;;;;8.33;100.00;100174.47;4967173;28;19918;-84
2023/10/16 09:01:00;;;;;;;;;;;;;;;8.42;100.00;100173.31;4965608;28;19919;-85
2023/10/16 09:03:26;;;;;;;;;;;;;;;8.43;100.00;100174.22;4965627;28;19919;-84
2023/10/16 09:05:51;;;;;;;;;;;;;;;8.45;100.00;100173.28;4966989;28;19973;-85
2023/10/16 09:08:17;;;;;;;;;;;;;;;8.50;100.00;100166.13;4967255;28;20036;-84
2023/10/16 09:10:44;;;;;;;;;;;;;;;8.58;100.00;100172.94;4966814;28;19925;-84
2023/10/16 09:13:16;;;;;;;;;;;;;;;8.58;100.00;100168.50;4966556;28;19933;-85
2023/10/16 09:15:48;;;;;;;;;;;;;;;8.62;100.00;100166.66;4955698;28;19922;-85
2023/10/16 09:18:15;;;;;;;;;;;;;;;8.64;100.00;100162.19;4966631;28;19974;-84
2023/10/16 09:20:41;;;;;;;;;;;;;;;8.66;100.00;100163.00;4966352;28;19985;-85
2023/10/16 09:23:07;;;;;;;;;;;;;;;8.71;100.00;100161.09;4966934;28;20369;-84
2023/10/16 09:25:33;;;;;;;;;;;;;;;8.73;100.00;100164.59;4966388;28;19926;-87
2023/10/16 09:27:59;;;;;;;;;;;;;;;8.78;100.00;100160.03;4966430;28;20289;-84
2023/10/16 09:30:28;;;;;;;;;;;;;;;8.81;100.00;100154.66;4965090;28;19922;-85
2023/10/16 09:32:54;;;;;;;;;;;;;;;8.85;100.00;100156.28;4966631;28;19969;-84
2023/10/16 09:35:30;;;;;;;;;;;;;;;8.86;100.00;100152.72;4966321;28;19926;-85
2023/10/16 09:38:09;;;;;;;;;;;;;;;8.86;100.00;100143.94;4966646;28;20290;-83
2023/10/16 09:40:37;;;;;;;;;;;;;;;8.86;100.00;100144.81;4966182;28;19941;-95
2023/10/16 09:43:06;;;;;;;;;;;;;;;8.88;100.00;100145.59;4966073;28;19981;-84
2023/10/16 09:45:35;;;;;;;;;;;;;;;8.76;100.00;100146.00;4962864;28;20285;-85
2023/10/16 09:48:07;;;;;;;;;;;;;;;7.21;100.00;100148.28;4966475;28;20021;-84
2023/10/16 09:50:33;;;;;;;;;;;;;;;6.60;100.00;100147.84;4965303;28;19923;-84
2023/10/16 09:53:01;;;;;;;;;;;;;;;6.26;100.00;100149.41;4966503;28;19925;-90
2023/10/16 09:55:28;;;;;;;;;;;;;;;6.11;100.00;100144.41;4964858;28;20304;-84
2023/10/16 09:57:56;;;;;;;;;;;;;;;5.98;100.00;100147.31;4965898;28;19980;-85
2023/10/16 10:03:06;;;;;;;;;;;;;;;5.71;100.00;100147.75;4965959;28;19933;-85
2023/10/16 10:05:47;;;;;;;;;;;;;;;5.64;100.00;100145.22;4966036;28;19922;-82
2023/10/16 10:08:15;;;;;;;;;;;;;;;5.51;100.00;100146.31;4965450;28;19922;-85
2023/10/16 10:13:35;;;;;;;;;;;;;;;5.48;100.00;100145.50;4964676;28;19929;-82
2023/10/16 10:16:10;;;;;;;;;;;;;;;5.41;100.00;100134.25;4964639;28;20365;-85
2023/10/16 10:21:12;;;;;;;;;;;;;;;5.23;100.00;100128.38;4965880;28;19925;-85
2023/10/16 10:23:40;;;;;;;;;;;;;;;5.18;100.00;100126.69;4965224;28;19914;-83
2023/10/16 10:26:07;;;;;;;;;;;;;;;5.11;100.00;100125.06;4965484;28;19950;-85
2023/10/16 10:28:38;;;;;;;;;;;;;;;5.07;100.00;100125.13;4964190;28;19968;-85
2023/10/16 10:31:04;;;;;;;;;;;;;;;5.07;100.00;100121.59;4962842;28;19925;-84
2023/10/16 10:33:51;;;;;;;;;;;;;;;5.02;100.00;100121.66;4965116;28;19919;-88
2023/10/16 10:36:28;;;;;;;;;;;;;;;4.96;100.00;100127.00;4979567;28;20009;-87
2023/10/16 10:39:20;;;;;;;;;;;;;;;4.99;100.00;100120.84;4955825;28;20396;-87
2023/10/16 10:41:47;;;;;;;;;;;;;;;4.94;100.00;100106.94;4955002;28;19985;-87
2023/10/16 10:44:14;;;;;;;;;;;;;;;4.96;100.00;100113.00;4963948;28;19923;-90
2023/10/16 10:46:42;;;;;;;;;;;;;;;4.89;100.00;100110.47;4963731;28;19922;-86
2023/10/16 10:49:12;;;;;;;;;;;;;;;4.88;100.00;100108.75;4965232;28;19918;-83
2023/10/16 10:51:46;;;;;;;;;;;;;;;4.87;100.00;100107.00;4965125;28;19922;-91
2023/10/16 10:54:13;;;;;;;;;;;;;;;4.83;100.00;100099.19;4947212;28;20330;-92
2023/10/16 10:56:47;;;;;;;;;;;;;;;4.80;100.00;100094.84;4979426;28;20265;-86
2023/10/16 10:59:13;;;;;;;;;;;;;;;4.84;100.00;100091.28;4964949;28;20262;-87
2023/10/16 11:02:08;;;;;;;;;;;;;;;4.82;100.00;100090.47;4962807;28;19969;-85
2023/10/16 11:04:34;;;;;;;;;;;;;;;4.76;100.00;100084.44;4964875;28;19918;-86
2023/10/16 11:07:11;;;;;;;;;;;;;;;4.66;100.00;100081.03;4965018;28;19925;-84
2023/10/16 11:09:37;;;;;;;;;;;;;;;4.82;100.00;100084.31;4964832;28;19918;-85
2023/10/16 11:12:02;;;;;;;;;;;;;;;5.85;100.00;100081.75;4964304;28;19926;-85
2023/10/16 11:14:32;;;;;;;;;;;;;;;6.28;100.00;100071.28;4964136;28;19922;-85
2023/10/16 11:16:58;;;;;;;;;;;;;;;6.59;100.00;100080.28;4946208;28;19923;-85
2023/10/16 11:19:29;;;;;;;;;;;;;;;6.83;100.00;100082.41;4964286;28;19993;-85
2023/10/16 11:21:56;;;;;;;;;;;;;;;7.03;100.00;100067.88;4964730;28;19914;-85
2023/10/16 11:24:24;;;;;;;;;;;;;;;7.11;100.00;100067.72;4964550;28;19926;-86
2023/10/16 11:26:51;;;;;;;;;;;;;;;7.27;100.00;100062.03;4963740;28;19964;-86
2023/10/16 11:29:19;;;;;;;;;;;;;;;7.39;100.00;100055.56;4978254;28;20074;-85
2023/10/16 11:31:44;;;;;;;;;;;;;;;7.43;100.00;100043.16;4962840;28;20282;-85
2023/10/16 11:34:12;;;;;;;;;;;;;;;7.52;100.00;100042.94;4964157;28;19922;-88
2023/10/16 11:36:39;;;;;;;;;;;;;;;7.62;100.00;100033.00;4964340;28;19925;-84
2023/10/16 11:39:07;;;;;;;;;;;;;;;7.70;100.00;100024.91;4964135;28;20259;-86
2023/10/16 11:41:32;;;;;;;;;;;;;;;7.81;100.00;100022.81;4954030;28;20278;-85
2023/10/16 11:44:01;;;;;;;;;;;;;;;7.85;100.00;100020.97;4945953;28;19922;-86
2023/10/16 11:46:28;;;;;;;;;;;;;;;7.94;100.00;100023.34;4963073;28;20482;-84
2023/10/16 11:49:29;;;;;;;;;;;;;;;8.01;100.00;100019.63;4963919;28;19922;-87
2023/10/16 11:51:57;;;;;;;;;;;;;;;8.10;100.00;100008.78;4963890;28;19929;-84
2023/10/16 11:54:26;;;;;;;;;;;;;;;8.14;100.00;99997.25;4964088;28;19919;-86
2023/10/16 11:56:53;;;;;;;;;;;;;;;8.23;100.00;100004.00;4963360;28;19987;-86
2023/10/16 11:59:19;;;;;;;;;;;;;;;8.29;100.00;99993.28;4962634;28;20075;-87
2023/10/16 12:01:45;;;;;;;;;;;;;;;8.36;100.00;99988.69;4962078;28;20392;-86
2023/10/16 12:04:11;;;;;;;;;;;;;;;8.41;100.00;99994.69;4964133;28;19926;-89
2023/10/16 12:06:38;;;;;;;;;;;;;;;8.48;100.00;99983.03;4963788;28;19919;-90
2023/10/16 12:09:03;;;;;;;;;;;;;;;8.52;100.00;99987.34;4952577;28;19922;-91
2023/10/16 12:11:28;;;;;;;;;;;;;;;8.53;100.00;99973.19;4954321;28;19972;-89
2023/10/16 12:13:54;;;;;;;;;;;;;;;8.57;100.00;99970.47;4963766;28;19923;-86
2023/10/16 12:16:24;;;;;;;;;;;;;;;8.58;100.00;99961.63;4962173;28;20341;-89
2023/10/16 12:18:51;;;;;;;;;;;;;;;8.62;100.00;99958.00;4978664;28;19922;-88
2023/10/16 12:21:24;;;;;;;;;;;;;;;8.70;100.00;99958.59;4963606;28;20433;-89
2023/10/16 12:23:50;;;;;;;;;;;;;;;8.72;100.00;99954.13;4963641;28;19922;-84
2023/10/16 12:26:16;;;;;;;;;;;;;;;8.72;100.00;99948.84;4962488;28;19965;-84
2023/10/16 12:28:43;;;;;;;;;;;;;;;8.77;100.00;99941.63;4963356;28;20357;-84
2023/10/16 12:31:08;;;;;;;;;;;;;;;8.77;100.00;99938.97;4962187;28;20365;-85
2023/10/16 12:33:34;;;;;;;;;;;;;;;8.84;100.00;99940.53;4963335;28;19926;-84
2023/10/16 12:36:01;;;;;;;;;;;;;;;8.87;100.00;99936.91;4963450;28;19926;-87
2023/10/16 12:38:30;;;;;;;;;;;;;;;8.90;100.00;99932.41;4963325;28;19930;-86
2023/10/16 12:40:55;;;;;;;;;;;;;;;8.86;100.00;99930.75;4952981;28;19926;-87
2023/10/16 12:43:21;;;;;;;;;;;;;;;7.18;100.00;99919.94;4963273;28;19922;-82
2023/10/16 12:45:49;;;;;;;;;;;;;;;6.60;100.00;99919.66;4961902;28;19919;-89
2023/10/16 12:48:14;;;;;;;;;;;;;;;6.36;100.00;99921.97;4962562;28;20012;-83
2023/10/16 12:50:39;;;;;;;;;;;;;;;6.21;100.00;99924.97;4963211;28;20001;-83
2023/10/16 12:53:05;;;;;;;;;;;;;;;5.97;100.00;99921.13;4963547;28;19926;-84
2023/10/16 12:55:31;;;;;;;;;;;;;;;5.80;100.00;99921.44;4963285;28;19918;-83
2023/10/16 12:57:56;;;;;;;;;;;;;;;5.64;100.00;99921.75;4952778;28;19923;-83
2023/10/16 13:00:22;;;;;;;;;;;;;;;5.60;100.00;99927.09;4952603;28;20342;-85
2023/10/16 13:02:51;;;;;;;;;;;;;;;5.45;100.00;99918.63;4963008;28;19922;-83
2023/10/16 13:05:19;;;;;;;;;;;;;;;5.52;100.00;99916.75;4962775;28;19928;-82
2023/10/16 13:07:48;;;;;;;;;;;;;;;5.48;100.00;99922.97;4944778;28;19919;-93
2023/10/16 13:10:15;;;;;;;;;;;;;;;5.36;100.00;99917.94;4961983;28;20011;-83
2023/10/16 13:12:41;;;;;;;;;;;;;;;5.30;100.00;99912.78;4963162;28;19918;-83
2023/10/16 13:15:08;;;;;;;;;;;;;;;5.24;100.00;99908.53;4961887;28;19926;-84
2023/10/16 13:17:34;;;;;;;;;;;;;;;5.21;100.00;99912.06;4963418;28;20333;-84
2023/10/16 13:19:59;;;;;;;;;;;;;;;5.11;100.00;99899.19;4965120;28;19950;-84
2023/10/16 13:22:25;;;;;;;;;;;;;;;5.06;100.00;99907.13;4966639;28;19918;-86
2023/10/16 13:24:53;;;;;;;;;;;;;;;5.06;100.00;99896.63;4966610;28;19957;-84
2023/10/16 13:27:20;;;;;;;;;;;;;;;5.11;100.00;99902.66;4966343;28;19918;-85
2023/10/16 13:29:46;;;;;;;;;;;;;;;4.98;100.00;99903.75;4965232;28;19918;-85
2023/10/16 13:32:12;;;;;;;;;;;;;;;5.00;100.00;99900.22;4965119;28;19981;-85
2023/10/16 13:34:38;;;;;;;;;;;;;;;4.91;100.00;99896.00;4966695;28;19922;-93
2023/10/16 13:37:10;;;;;;;;;;;;;;;4.88;100.00;99905.69;4966243;28;19941;-84
2023/10/16 13:39:41;;;;;;;;;;;;;;;4.85;100.00;99904.00;4966089;28;19919;-87
2023/10/16 13:42:09;;;;;;;;;;;;;;;4.87;100.00;99902.19;4965436;28;19919;-90
2023/10/16 13:44:42;;;;;;;;;;;;;;;4.84;100.00;99901.41;4966428;28;19997;-86
2023/10/16 13:47:08;;;;;;;;;;;;;;;4.95;100.00;99899.44;4963961;28;19918;-86
2023/10/16 13:49:37;;;;;;;;;;;;;;;4.95;100.00;99899.44;4965966;28;19918;-85
2023/10/16 13:52:03;;;;;;;;;;;;;;;4.84;100.00;99894.38;4965797;28;19922;-85
2023/10/16 13:54:31;;;;;;;;;;;;;;;4.84;100.00;99890.91;4965895;28;19914;-85
2023/10/16 13:56:56;;;;;;;;;;;;;;;4.73;100.00;99891.06;4966118;28;19922;-85
2023/10/16 13:59:21;;;;;;;;;;;;;;;4.83;100.00;99887.38;4966183;28;19968;-86
2023/10/16 14:01:47;;;;;;;;;;;;;;;4.77;100.00;99892.78;4946734;28;19922;-85
2023/10/16 14:04:16;;;;;;;;;;;;;;;4.67;100.00;99888.56;4965727;28;19929;-84
2023/10/16 14:06:43;;;;;;;;;;;;;;;4.90;100.00;99881.13;4965243;28;20068;-87
2023/10/16 14:09:18;;;;;;;;;;;;;;;5.91;100.00;99877.34;4955472;28;19966;-86
2023/10/16 14:11:50;;;;;;;;;;;;;;;6.30;100.00;99872.13;4965436;28;19992;-87
2023/10/16 14:14:19;;;;;;;;;;;;;;;6.61;100.00;99876.63;4948115;28;19919;-85
2023/10/16 14:17:02;;;;;;;;;;;;;;;6.88;100.00;99874.19;4964458;28;19929;-92
2023/10/16 14:19:29;;;;;;;;;;;;;;;7.06;100.00;99867.56;4965569;28;19919;-85
2023/10/16 14:21:57;;;;;;;;;;;;;;;7.16;100.00;99865.53;4948255;28;19922;-84
2023/10/16 14:24:24;;;;;;;;;;;;;;;7.25;100.00;99866.13;4955913;28;19929;-85
2023/10/16 14:26:50;;;;;;;;;;;;;;;7.35;100.00;99863.25;4964253;28;19919;-84
2023/10/16 14:29:16;;;;;;;;;;;;;;;7.44;100.00;99853.31;4965716;28;19941;-85
2023/10/16 14:31:46;;;;;;;;;;;;;;;7.57;100.00;99851.16;4962690;28;19923;-85
2023/10/16 14:34:14;;;;;;;;;;;;;;;7.64;100.00;99838.66;4963959;28;19919;-84
2023/10/16 14:36:39;;;;;;;;;;;;;;;7.73;100.00;99846.31;4965081;28;20286;-85
2023/10/16 14:39:09;;;;;;;;;;;;;;;7.85;100.00;99844.19;4964916;28;19922;-84
2023/10/16 14:41:34;;;;;;;;;;;;;;;7.93;100.00;99839.53;4964643;28;19944;-86
2023/10/16 14:43:59;;;;;;;;;;;;;;;7.98;100.00;99837.66;4965412;28;20316;-84
2023/10/16 14:46:25;;;;;;;;;;;;;;;8.09;100.00;99832.91;4963994;28;19935;-85
2023/10/16 14:48:53;;;;;;;;;;;;;;;8.14;100.00;99830.13;4964683;28;19919;-85
2023/10/16 14:51:20;;;;;;;;;;;;;;;8.26;100.00;99828.84;4964967;28;20297;-85
2023/10/16 14:53:48;;;;;;;;;;;;;;;8.31;100.00;99818.97;4965080;28;19918;-86
2023/10/16 14:58:49;;;;;;;;;;;;;;;8.39;100.00;99819.59;5208698;23;19929;-85
2023/10/16 15:01:15;;;;;;;;;;;;;;;8.48;100.00;99808.75;5004360;28;19947;-84
2023/10/16 15:03:44;;;;;;;;;;;;;;;8.51;100.00;99813.94;5006180;28;19918;-84
2023/10/16 15:06:12;;;;;;;;;;;;;;;8.55;100.00;99806.75;5021947;28;19921;-84
2023/10/16 15:08:38;;;;;;;;;;;;;;;8.54;100.00;99799.78;5005280;28;19924;-84
2023/10/16 15:11:03;;;;;;;;;;;;;;;8.56;100.00;99810.28;5005770;28;20015;-85
2023/10/16 15:13:28;;;;;;;;;;;;;;;8.62;100.00;99818.84;5022987;28;20328;-84
2023/10/16 15:15:57;;;;;;;;;;;;;;;8.67;100.00;99814.28;5021367;28;19917;-86
2023/10/16 15:18:22;;;;;;;;;;;;;;;8.72;100.00;99812.31;5022741;28;20439;-84
2023/10/16 15:20:48;;;;;;;;;;;;;;;8.75;100.00;99821.94;5022851;28;19929;-85
2023/10/16 15:23:13;;;;;;;;;;;;;;;8.77;100.00;99822.75;5023142;28;20358;-84
2023/10/16 15:25:39;;;;;;;;;;;;;;;8.80;100.00;99816.50;5023037;28;20289;-84
2023/10/16 15:28:14;;;;;;;;;;;;;;;8.82;100.00;99817.28;5022497;28;19918;-84
2023/10/16 15:30:40;;;;;;;;;;;;;;;8.85;100.00;99810.13;5021551;28;20445;-84
2023/10/16 15:33:29;;;;;;;;;;;;;;;8.87;100.00;99810.94;5023782;28;19917;-94
2023/10/16 15:35:55;;;;;;;;;;;;;;;8.82;100.00;99812.91;5022377;28;20289;-85
2023/10/16 15:38:24;;;;;;;;;;;;;;;7.14;100.00;99804.13;5022836;28;19921;-85
2023/10/16 15:40:50;;;;;;;;;;;;;;;6.64;100.00;99810.72;5022563;28;20414;-85
2023/10/16 15:43:16;;;;;;;;;;;;;;;6.18;100.00;99811.88;5021456;28;19918;-85
2023/10/16 15:45:42;;;;;;;;;;;;;;;6.02;100.00;99807.91;5021597;28;19917;-85
2023/10/16 15:48:08;;;;;;;;;;;;;;;5.98;100.00;99822.88;5022090;28;19921;-85
2023/10/16 15:50:35;;;;;;;;;;;;;;;5.80;100.00;99821.50;5022397;28;19918;-85
2023/10/16 15:53:09;;;;;;;;;;;;;;;5.69;100.00;99826.16;5004565;28;19928;-85
2023/10/16 15:55:34;;;;;;;;;;;;;;;5.58;100.00;99821.97;5021516;28;20286;-85
2023/10/16 15:58:00;;;;;;;;;;;;;;;5.50;100.00;99829.16;5022377;28;19921;-85
2023/10/16 16:00:26;;;;;;;;;;;;;;;5.40;100.00;99814.50;5020888;28;20357;-85
2023/10/16 16:02:52;;;;;;;;;;;;;;;5.33;100.00;99816.41;5021946;28;19917;-86
2023/10/16 16:05:17;;;;;;;;;;;;;;;5.35;100.00;99821.63;5005366;28;20447;-86
2023/10/16 16:07:43;;;;;;;;;;;;;;;5.23;100.00;99830.59;5022395;28;19921;-86
2023/10/16 16:10:10;;;;;;;;;;;;;;;5.17;100.00;99830.72;5021950;28;20291;-84
2023/10/16 16:12:36;;;;;;;;;;;;;;;5.15;100.00;99832.53;5021876;28;19944;-86
2023/10/16 16:15:04;;;;;;;;;;;;;;;5.08;100.00;99832.66;5020257;28;20276;-86
2023/10/16 16:17:31;;;;;;;;;;;;;;;5.09;100.00;99841.41;5022115;28;19918;-86
2023/10/16 16:19:56;;;;;;;;;;;;;;;5.02;100.00;99839.78;5022655;28;20372;-87
2023/10/16 16:22:22;;;;;;;;;;;;;;;5.01;100.00;99845.91;5022144;28;19957;-86
2023/10/16 16:24:47;;;;;;;;;;;;;;;4.98;100.00;99857.38;5004118;28;19918;-85
2023/10/16 16:27:15;;;;;;;;;;;;;;;5.01;100.00;99861.69;5004124;28;20293;-92
2023/10/16 16:29:40;;;;;;;;;;;;;;;4.89;100.00;99853.13;5011476;23;19929;-87
2023/10/16 16:32:06;;;;;;;;;;;;;;;4.88;100.00;99855.78;5003389;28;19925;-86
2023/10/16 16:34:32;;;;;;;;;;;;;;;4.80;100.00;99853.31;5004232;28;20039;-86
2023/10/16 16:37:01;;;;;;;;;;;;;;;4.76;100.00;99862.16;5031795;28;19925;-85
2023/10/16 16:39:32;;;;;;;;;;;;;;;4.78;100.00;99856.88;5031715;28;19917;-84
2023/10/16 16:42:01;;;;;;;;;;;;;;;4.76;100.00;99854.28;5013935;28;19924;-84
2023/10/16 16:44:26;;;;;;;;;;;;;;;4.78;100.00;99849.84;5031613;28;20372;-84
2023/10/16 16:46:52;;;;;;;;;;;;;;;4.97;100.00;99854.78;5013158;28;19927;-85
2023/10/16 16:49:18;;;;;;;;;;;;;;;5.91;100.00;99858.94;5031574;28;19928;-84
2023/10/16 16:51:44;;;;;;;;;;;;;;;6.36;100.00;99863.19;5031695;28;20361;-84
2023/10/16 16:54:11;;;;;;;;;;;;;;;6.64;100.00;99860.75;5032116;28;19925;-84
2023/10/16 16:56:37;;;;;;;;;;;;;;;6.84;100.00;99869.91;5035592;28;19924;-84
2023/10/16 16:59:05;;;;;;;;;;;;;;;7.02;100.00;99872.06;5025763;28;20020;-84
2023/10/16 17:01:34;;;;;;;;;;;;;;;7.15;100.00;99875.22;5032854;28;19924;-83
2023/10/16 17:03:59;;;;;;;;;;;;;;;7.28;100.00;99881.03;5035424;28;19917;-84
2023/10/16 17:06:24;;;;;;;;;;;;;;;7.37;100.00;99878.13;5035461;28;19924;-85
2023/10/16 17:08:49;;;;;;;;;;;;;;;7.46;100.00;99883.13;5025494;28;19921;-85
2023/10/16 17:11:15;;;;;;;;;;;;;;;7.57;100.00;99879.31;5025032;28;19924;-83
2023/10/16 17:13:41;;;;;;;;;;;;;;;7.69;100.00;99875.44;5025757;28;20004;-85
2023/10/16 17:16:07;;;;;;;;;;;;;;;7.77;100.00;99878.72;5023941;28;19914;-85
2023/10/16 17:18:33;;;;;;;;;;;;;;;7.86;100.00;99882.88;5034297;28;19917;-85
2023/10/16 17:20:58;;;;;;;;;;;;;;;7.93;100.00;99876.47;5034720;28;19966;-81
2023/10/16 17:23:24;;;;;;;;;;;;;;;7.99;100.00;99879.81;5035092;28;19955;-84
2023/10/16 17:25:49;;;;;;;;;;;;;;;8.07;100.00;99870.78;5035051;28;19928;-83
2023/10/16 17:28:16;;;;;;;;;;;;;;;8.16;100.00;99878.44;5035070;28;19917;-83
2023/10/16 17:30:41;;;;;;;;;;;;;;;8.21;100.00;99870.38;5033613;28;19921;-84
2023/10/16 17:33:07;;;;;;;;;;;;;;;8.27;100.00;99872.81;5034915;28;19970;-83
2023/10/16 17:35:37;;;;;;;;;;;;;;;8.32;100.00;99870.88;5034887;28;20280;-84
2023/10/16 17:38:03;;;;;;;;;;;;;;;8.36;100.00;99869.88;5034859;28;20015;-84
2023/10/16 17:40:28;;;;;;;;;;;;;;;8.42;100.00;99860.88;5034652;28;20082;-83
2023/10/16 17:42:55;;;;;;;;;;;;;;;8.46;100.00;99865.19;5023971;28;19917;-84
2023/10/16 17:45:20;;;;;;;;;;;;;;;8.49;100.00;99863.31;5023367;28;19933;-83
2023/10/16 17:47:45;;;;;;;;;;;;;;;8.56;100.00;99868.41;5024534;28;19921;-83
2023/10/16 17:50:11;;;;;;;;;;;;;;;8.58;100.00;99866.56;5024541;28;20361;-83
2023/10/16 17:52:36;;;;;;;;;;;;;;;8.60;100.00;99862.06;5034568;28;20390;-83
2023/10/16 17:55:08;;;;;;;;;;;;;;;8.63;100.00;99867.25;5016477;28;19917;-83
2023/10/16 17:57:36;;;;;;;;;;;;;;;8.67;100.00;99876.81;5034128;28;19956;-83
2023/10/16 18:00:07;;;;;;;;;;;;;;;8.71;100.00;99879.31;5034024;28;19917;-83
2023/10/16 18:02:34;;;;;;;;;;;;;;;8.75;100.00;99874.78;5016522;28;19961;-82
2023/10/16 18:04:59;;;;;;;;;;;;;;;8.74;100.00;99862.47;5034256;28;19921;-83
2023/10/16 18:07:25;;;;;;;;;;;;;;;8.78;100.00;99863.25;5033152;28;19917;-83
2023/10/16 18:09:52;;;;;;;;;;;;;;;8.81;100.00;99863.16;5034172;28;20015;-83
2023/10/16 18:12:21;;;;;;;;;;;;;;;8.81;100.00;99861.34;5025317;28;20310;-82
2023/10/16 18:14:46;;;;;;;;;;;;;;;8.86;100.00;99867.34;5033176;28;19951;-83
2023/10/16 18:17:12;;;;;;;;;;;;;;;8.88;100.00;99868.16;5032766;28;19921;-83
2023/10/16 18:19:39;;;;;;;;;;;;;;;8.90;100.00;99863.69;5034241;28;20441;-83
2023/10/16 18:22:05;;;;;;;;;;;;;;;8.93;100.00;99857.41;5034041;28;19918;-83
2023/10/16 18:24:32;;;;;;;;;;;;;;;8.94;100.00;99850.38;5024129;28;19917;-83
2023/10/16 18:26:59;;;;;;;;;;;;;;;7.52;100.00;99841.69;5023783;28;20447;-83
2023/10/16 18:29:24;;;;;;;;;;;;;;;6.71;100.00;99849.16;5033390;28;19964;-83
2023/10/16 18:31:49;;;;;;;;;;;;;;;6.31;100.00;99860.69;5032678;28;19973;-83
2023/10/16 18:34:15;;;;;;;;;;;;;;;6.14;100.00;99869.00;5033683;28;19963;-83
2023/10/16 18:36:43;;;;;;;;;;;;;;;6.02;100.00;99879.78;5033701;28;19921;-84
2023/10/16 18:39:13;;;;;;;;;;;;;;;5.91;100.00;99873.88;5015057;28;19921;-84
2023/10/16 18:41:40;;;;;;;;;;;;;;;5.76;100.00;99877.69;5032796;28;19917;-85
2023/10/16 18:44:06;;;;;;;;;;;;;;;5.61;100.00;99877.13;5023749;28;19925;-84
2023/10/16 18:46:31;;;;;;;;;;;;;;;5.58;100.00;99878.94;5004482;28;20788;-84
2023/10/16 18:49:04;;;;;;;;;;;;;;;5.44;100.00;99877.47;5033583;28;19919;-84
2023/10/16 18:51:30;;;;;;;;;;;;;;;5.45;100.00;99871.31;5032605;28;19921;-84
2023/10/16 18:53:55;;;;;;;;;;;;;;;5.35;100.00;99869.78;5023522;28;19917;-84
2023/10/16 18:56:22;;;;;;;;;;;;;;;5.31;100.00;99864.63;5023052;28;19928;-83
2023/10/16 18:58:50;;;;;;;;;;;;;;;5.20;100.00;99865.72;5033341;28;19917;-85
2023/10/16 19:01:15;;;;;;;;;;;;;;;5.22;100.00;99860.44;5004569;28;19929;-83
2023/10/16 19:03:41;;;;;;;;;;;;;;;5.23;100.00;99859.50;5023162;28;19917;-83
2023/10/16 19:06:06;;;;;;;;;;;;;;;5.08;100.00;99852.81;5023391;28;19924;-94
2023/10/16 19:08:32;;;;;;;;;;;;;;;5.13;100.00;99860.59;5005680;28;19921;-83
2023/10/16 19:11:01;;;;;;;;;;;;;;;5.07;100.00;99859.84;5031918;28;19947;-85
2023/10/16 19:13:28;;;;;;;;;;;;;;;5.06;100.00;99859.84;5014202;28;20048;-84
2023/10/16 19:15:53;;;;;;;;;;;;;;;5.02;100.00;99855.53;5005878;28;19917;-84
2023/10/16 19:18:18;;;;;;;;;;;;;;;4.93;100.00;99855.72;5032455;28;20008;-83
2023/10/16 19:20:44;;;;;;;;;;;;;;;4.91;100.00;99851.38;5027991;28;20384;-84
2023/10/16 19:23:10;;;;;;;;;;;;;;;4.86;100.00;99853.19;5013739;28;19933;-86
2023/10/16 19:25:35;;;;;;;;;;;;;;;4.86;100.00;99845.31;5030977;28;19960;-84
2023/10/16 19:28:00;;;;;;;;;;;;;;;4.84;100.00;99849.75;5025221;28;20356;-83
2023/10/16 19:30:26;;;;;;;;;;;;;;;4.77;100.00;99848.13;5009524;28;20077;-83
2023/10/16 19:32:52;;;;;;;;;;;;;;;4.83;100.00;99842.75;5011752;28;19968;-83
2023/10/16 19:35:17;;;;;;;;;;;;;;;4.77;100.00;99842.00;5012776;28;19917;-83
2023/10/16 19:37:43;;;;;;;;;;;;;;;4.67;100.00;99842.16;5010834;28;19927;-85
2023/10/16 19:40:15;;;;;;;;;;;;;;;4.69;100.00;99837.78;5012821;28;20415;-84
2023/10/16 19:42:44;;;;;;;;;;;;;;;5.09;100.00;99836.16;5015055;28;20471;-84
2023/10/16 19:45:10;;;;;;;;;;;;;;;5.95;100.00;99834.31;5009801;28;19926;-84
2023/10/16 19:47:38;;;;;;;;;;;;;;;6.38;100.00;99821.06;5011761;28;20381;-84
2023/10/16 19:50:07;;;;;;;;;;;;;;;6.66;100.00;99824.72;5011000;28;19922;-84
2023/10/16 19:52:33;;;;;;;;;;;;;;;6.86;100.00;99837.34;5012564;28;20005;-84
2023/10/16 19:54:58;;;;;;;;;;;;;;;7.04;100.00;99830.72;5010745;28;19996;-85
2023/10/16 19:57:24;;;;;;;;;;;;;;;7.20;100.00;99835.56;5009036;28;19925;-84
2023/10/16 19:59:49;;;;;;;;;;;;;;;7.32;100.00;99826.44;5012610;28;19928;-83
2023/10/16 20:02:14;;;;;;;;;;;;;;;7.40;100.00;99829.72;5006384;28;19922;-83
2023/10/16 20:04:41;;;;;;;;;;;;;;;7.51;100.00;99830.25;5002486;28;20438;-83
2023/10/16 20:07:10;;;;;;;;;;;;;;;7.63;100.00;99824.63;5027658;28;19972;-83
2023/10/16 20:09:36;;;;;;;;;;;;;;;7.70;100.00;99825.28;5002952;28;19921;-83
2023/10/16 20:12:06;;;;;;;;;;;;;;;7.78;100.00;99831.19;5003113;28;20285;-83
2023/10/16 20:14:31;;;;;;;;;;;;;;;7.86;100.00;99828.31;5012259;28;20032;-83
2023/10/16 20:16:56;;;;;;;;;;;;;;;7.96;100.00;99823.63;5005778;28;20272;-81
2023/10/16 20:19:23;;;;;;;;;;;;;;;8.02;100.00;99815.50;5012220;28;19928;-84
2023/10/16 20:21:51;;;;;;;;;;;;;;;8.08;100.00;99814.47;5002840;28;19928;-83
2023/10/16 20:24:17;;;;;;;;;;;;;;;8.18;100.00;99818.53;5011694;28;19925;-83
2023/10/16 20:26:43;;;;;;;;;;;;;;;8.24;100.00;99815.69;5011429;28;19960;-83
2023/10/16 20:29:09;;;;;;;;;;;;;;;8.30;100.00;99814.63;5012850;28;20020;-84
2023/10/16 20:31:34;;;;;;;;;;;;;;;8.32;100.00;99816.28;5034510;28;20012;-84
2023/10/16 20:34:00;;;;;;;;;;;;;;;8.36;100.00;99811.78;5035453;28;19932;-83
2023/10/16 20:36:25;;;;;;;;;;;;;;;8.44;100.00;99806.25;5026383;28;19918;-85
2023/10/16 20:38:52;;;;;;;;;;;;;;;8.43;100.00;99815.97;5018144;28;19924;-82
2023/10/16 20:41:18;;;;;;;;;;;;;;;8.49;100.00;99826.34;5015288;28;20016;-83
2023/10/16 20:43:43;;;;;;;;;;;;;;;8.52;100.00;99810.38;5016832;28;19971;-83
2023/10/16 20:46:09;;;;;;;;;;;;;;;8.57;100.00;99798.78;5016941;28;20034;-84
2023/10/16 20:48:35;;;;;;;;;;;;;;;8.60;100.00;99791.66;5025666;28;19924;-83
2023/10/16 20:51:00;;;;;;;;;;;;;;;8.63;100.00;99793.28;5026082;28;20047;-84
2023/10/16 20:53:26;;;;;;;;;;;;;;;8.66;100.00;99795.84;5035719;28;20391;-84
2023/10/16 20:55:51;;;;;;;;;;;;;;;8.70;100.00;99792.19;5025856;28;19928;-83
2023/10/16 20:58:18;;;;;;;;;;;;;;;8.70;100.00;99786.91;5008240;28;19918;-83
2023/10/16 21:00:45;;;;;;;;;;;;;;;8.76;100.00;99781.41;5024068;28;19984;-83